Time;durP1;ratioP1;P1;durP2;ratioP2;P2;SDS_P1;SDS_P2;PMS_P1;PMS_P2;Temp;Humidity;BMP_temperature;BMP_pressure;BME280_temperature;BME280_humidity;BME280_pressure;Samples;Min_cycle;Max_cycle;Signal;HPM_P1;HPM_P2
2022/10/28 00:00:17;;;;;;;13.82;8.27;;;14.40;99.90;;;;;;5047408;28;20049;-49
2022/10/28 00:02:42;;;;;;;21.13;7.80;;;14.10;99.90;;;;;;5047537;28;20094;-47
2022/10/28 00:05:08;;;;;;;14.35;7.57;;;14.10;99.90;;;;;;5047439;28;20132;-49
2022/10/28 00:07:34;;;;;;;16.35;8.52;;;14.00;99.90;;;;;;5046823;28;20076;-48
2022/10/28 00:10:00;;;;;;;15.35;7.95;;;14.00;99.90;;;;;;5045358;28;20076;-48
2022/10/28 00:12:25;;;;;;;15.32;8.63;;;14.00;99.90;;;;;;5046013;28;20078;-48
2022/10/28 00:14:51;;;;;;;16.80;8.35;;;13.80;99.90;;;;;;5047246;28;20425;-47
2022/10/28 00:17:17;;;;;;;16.40;9.38;;;13.80;99.90;;;;;;5047112;28;20049;-49
2022/10/28 00:19:42;;;;;;;15.77;8.65;;;13.80;99.90;;;;;;5047174;28;20049;-50
2022/10/28 00:22:08;;;;;;;16.63;8.55;;;13.80;99.90;;;;;;5047161;28;20053;-48
2022/10/28 00:24:34;;;;;;;15.55;8.75;;;13.90;99.90;;;;;;5046824;28;20044;-48
2022/10/28 00:26:59;;;;;;;15.35;9.40;;;13.90;99.90;;;;;;5046916;28;20164;-47
2022/10/28 00:29:25;;;;;;;16.65;9.70;;;13.90;99.90;;;;;;5046584;28;20072;-48
2022/10/28 00:31:51;;;;;;;15.90;9.23;;;14.00;99.90;;;;;;5047071;28;20033;-48
2022/10/28 00:34:20;;;;;;;21.52;9.65;;;14.00;99.90;;;;;;5045818;28;20045;-46
2022/10/28 00:36:47;;;;;;;19.00;9.95;;;14.10;99.90;;;;;;5047193;28;20083;-48
2022/10/28 00:39:22;;;;;;;18.25;9.43;;;14.10;99.90;;;;;;5046401;28;20498;-47
2022/10/28 00:41:51;;;;;;;21.80;9.93;;;14.20;99.90;;;;;;5047274;28;20745;-47
2022/10/28 00:44:47;;;;;;;17.48;9.60;;;14.20;99.90;;;;;;5047402;28;20072;-48
2022/10/28 00:47:25;;;;;;;17.27;8.30;;;14.30;99.90;;;;;;5047063;28;20061;-49
2022/10/28 00:49:54;;;;;;;19.55;8.40;;;14.40;99.90;;;;;;5047488;28;20048;-48
2022/10/28 00:52:25;;;;;;;16.48;8.93;;;14.40;99.90;;;;;;5046226;28;20486;-48
2022/10/28 00:54:52;;;;;;;14.30;8.50;;;14.40;99.90;;;;;;5050840;28;20052;-48
2022/10/28 00:57:25;;;;;;;20.17;8.18;;;14.50;99.90;;;;;;5051412;28;20041;-47
2022/10/28 00:59:52;;;;;;;16.13;7.93;;;14.50;99.90;;;;;;5051196;28;20095;-47
2022/10/28 01:02:18;;;;;;;18.75;10.02;;;14.50;99.90;;;;;;5050639;28;20048;-48
2022/10/28 01:04:46;;;;;;;15.05;8.20;;;14.60;99.90;;;;;;5050594;28;20045;-48
2022/10/28 01:07:13;;;;;;;15.38;8.48;;;14.60;99.90;;;;;;5050964;28;20087;-48
2022/10/28 01:09:39;;;;;;;19.05;9.07;;;14.60;99.90;;;;;;5050133;28;20044;-48
2022/10/28 01:12:47;;;;;;;16.73;8.88;;;14.60;99.90;;;;;;5050542;28;20426;-49
2022/10/28 01:15:40;;;;;;;18.27;9.27;;;14.60;99.90;;;;;;5047570;28;20110;-47
2022/10/28 01:18:23;;;;;;;19.15;9.40;;;14.70;99.90;;;;;;5050652;28;20044;-49
2022/10/28 01:21:33;;;;;;;16.30;9.63;;;14.60;99.90;;;;;;5050161;28;20049;-48
2022/10/28 01:24:18;;;;;;;24.17;9.90;;;14.60;99.90;;;;;;5050298;28;20074;-48
2022/10/28 01:27:00;;;;;;;19.17;9.13;;;14.60;99.90;;;;;;5049501;28;20041;-47
2022/10/28 01:29:58;;;;;;;18.65;10.73;;;14.60;99.90;;;;;;5049568;28;20037;-47
2022/10/28 01:32:30;;;;;;;20.80;10.13;;;14.50;99.90;;;;;;5050343;28;20133;-48
2022/10/28 01:35:11;;;;;;;20.50;10.65;;;14.40;99.90;;;;;;5049319;28;20504;-47
2022/10/28 01:37:52;;;;;;;18.85;10.18;;;14.40;99.90;;;;;;5049623;28;20044;-48
2022/10/28 01:40:43;;;;;;;16.90;10.23;;;14.20;99.90;;;;;;5038896;28;20037;-48
2022/10/28 01:43:19;;;;;;;18.48;10.15;;;14.20;99.90;;;;;;5029573;28;20037;-48
2022/10/28 01:45:54;;;;;;;24.02;10.50;;;14.00;99.90;;;;;;5029157;28;20053;-50
2022/10/28 01:48:38;;;;;;;18.05;10.52;;;14.00;99.90;;;;;;5029786;28;20203;-49
2022/10/28 01:51:24;;;;;;;19.30;9.98;;;14.00;99.90;;;;;;5029847;28;20044;-49
2022/10/28 01:53:53;;;;;;;19.58;11.00;;;13.90;99.90;;;;;;5029462;28;20037;-52
2022/10/28 01:56:25;;;;;;;17.20;11.13;;;14.00;99.90;;;;;;5029563;28;20057;-50
2022/10/28 01:58:54;;;;;;;17.83;10.52;;;14.10;99.90;;;;;;5029084;28;20052;-51
2022/10/28 02:01:22;;;;;;;17.70;11.25;;;13.90;99.90;;;;;;5029266;28;20054;-48
2022/10/28 02:03:49;;;;;;;15.93;10.00;;;13.70;99.90;;;;;;5029078;28;20762;-50
2022/10/28 02:06:17;;;;;;;18.90;10.98;;;13.80;99.90;;;;;;5029660;28;20390;-48
2022/10/28 02:08:52;;;;;;;21.23;11.45;;;13.70;99.90;;;;;;5029588;28;20042;-50
2022/10/28 02:11:27;;;;;;;19.63;11.48;;;13.70;99.90;;;;;;5029899;28;20596;-50
2022/10/28 02:14:02;;;;;;;19.70;11.38;;;13.70;99.90;;;;;;5029299;28;20472;-48
2022/10/28 02:16:52;;;;;;;23.55;11.90;;;13.70;99.90;;;;;;5029800;28;20045;-48
2022/10/28 02:19:42;;;;;;;19.88;11.30;;;13.70;99.90;;;;;;5029740;28;20068;-51
2022/10/28 02:22:45;;;;;;;18.10;12.35;;;13.60;99.90;;;;;;5029454;28;20053;-50
2022/10/28 02:25:40;;;;;;;19.08;11.40;;;13.60;99.90;;;;;;5029459;28;20045;-49
2022/10/28 02:28:07;;;;;;;19.65;11.18;;;13.60;99.90;;;;;;5022713;28;20125;-49
2022/10/28 02:30:48;;;;;;;28.30;11.80;;;13.60;99.90;;;;;;5027881;28;20042;-49
2022/10/28 02:33:20;;;;;;;18.80;12.13;;;13.50;99.90;;;;;;5031081;28;20045;-49
2022/10/28 02:36:08;;;;;;;21.93;11.20;;;13.50;99.90;;;;;;5048690;28;20071;-47
2022/10/28 02:38:38;;;;;;;25.98;13.15;;;13.50;99.90;;;;;;5049011;28;20283;-52
2022/10/28 02:41:30;;;;;;;22.58;12.25;;;13.50;99.90;;;;;;5048765;28;20044;-48
2022/10/28 02:44:00;;;;;;;20.67;11.90;;;13.40;99.90;;;;;;5048306;28;20098;-48
2022/10/28 02:46:30;;;;;;;29.25;13.38;;;13.70;99.90;;;;;;5048130;28;20059;-49
2022/10/28 02:49:00;;;;;;;21.08;13.80;;;13.40;99.90;;;;;;5047892;28;20080;-49
2022/10/28 02:51:34;;;;;;;21.05;11.70;;;13.40;99.90;;;;;;5048731;28;20111;-51
2022/10/28 02:54:16;;;;;;;20.98;12.15;;;13.40;99.90;;;;;;5048212;28;20033;-49
2022/10/28 02:56:51;;;;;;;27.02;12.80;;;13.30;99.90;;;;;;5047935;28;20048;-51
2022/10/28 02:59:17;;;;;;;21.48;12.63;;;13.30;99.90;;;;;;5048249;28;20045;-49
2022/10/28 03:01:43;;;;;;;28.65;12.90;;;13.20;99.90;;;;;;5047789;28;20490;-47
2022/10/28 03:04:08;;;;;;;25.52;12.35;;;13.10;99.90;;;;;;5048477;28;20056;-52
2022/10/28 03:06:34;;;;;;;23.73;12.50;;;13.20;99.90;;;;;;5048169;28;20044;-51
2022/10/28 03:09:00;;;;;;;19.88;11.93;;;13.10;99.90;;;;;;5048384;28;20042;-48
2022/10/28 03:11:25;;;;;;;21.05;11.63;;;13.40;99.90;;;;;;5048005;28;20142;-50
2022/10/28 03:13:51;;;;;;;20.17;12.35;;;13.10;99.90;;;;;;5047886;28;20044;-48
2022/10/28 03:16:16;;;;;;;24.55;13.85;;;13.10;99.90;;;;;;5047461;28;20041;-48
2022/10/28 03:18:42;;;;;;;25.50;13.68;;;13.10;99.90;;;;;;5048484;28;20041;-47
2022/10/28 03:21:08;;;;;;;21.55;12.40;;;13.00;99.90;;;;;;5047453;28;20430;-49
2022/10/28 03:23:33;;;;;;;22.50;14.07;;;13.00;99.90;;;;;;5047929;28;20124;-51
2022/10/28 03:25:59;;;;;;;21.20;12.27;;;12.90;99.90;;;;;;5047719;28;20171;-48
2022/10/28 03:28:25;;;;;;;19.98;13.70;;;13.40;99.90;;;;;;5048208;28;20056;-48
2022/10/28 03:30:50;;;;;;;20.27;12.32;;;12.90;99.90;;;;;;5048155;28;20044;-48
2022/10/28 03:33:16;;;;;;;22.85;13.35;;;12.90;99.90;;;;;;5046962;28;20051;-48
2022/10/28 03:35:41;;;;;;;26.77;13.27;;;12.90;99.90;;;;;;5047795;28;20048;-47
2022/10/28 03:38:07;;;;;;;20.83;13.05;;;12.90;99.90;;;;;;5047937;28;20041;-50
2022/10/28 03:40:33;;;;;;;22.90;14.20;;;12.90;99.90;;;;;;5047615;28;20036;-48
2022/10/28 03:42:59;;;;;;;23.73;12.88;;;13.00;99.90;;;;;;5048087;28;20041;-48
2022/10/28 03:45:25;;;;;;;25.45;14.27;;;12.80;99.90;;;;;;5047543;28;20064;-47
2022/10/28 03:47:50;;;;;;;24.17;14.10;;;13.00;99.90;;;;;;5046617;28;20582;-50
2022/10/28 03:50:16;;;;;;;24.73;14.20;;;12.90;99.90;;;;;;5048215;28;20040;-52
2022/10/28 03:52:43;;;;;;;20.83;13.40;;;12.90;99.90;;;;;;5048527;28;20037;-48
2022/10/28 03:55:09;;;;;;;20.23;13.63;;;12.80;99.90;;;;;;5047534;28;20045;-48
2022/10/28 03:57:34;;;;;;;22.35;13.38;;;12.90;99.90;;;;;;5046752;28;20059;-49
2022/10/28 04:00:00;;;;;;;21.80;13.82;;;12.90;99.90;;;;;;5048128;28;20123;-48
2022/10/28 04:02:26;;;;;;;25.27;13.50;;;12.90;99.90;;;;;;5048641;28;20836;-50
2022/10/28 04:04:52;;;;;;;26.70;13.27;;;12.90;99.90;;;;;;5047759;28;20779;-48
2022/10/28 04:07:17;;;;;;;22.08;14.93;;;12.90;99.90;;;;;;5048411;28;20112;-49
2022/10/28 04:09:43;;;;;;;26.55;14.55;;;12.80;99.90;;;;;;5048439;28;20040;-48
2022/10/28 04:12:09;;;;;;;19.55;13.50;;;12.80;99.90;;;;;;5048091;28;20041;-48
2022/10/28 04:14:35;;;;;;;21.20;14.07;;;12.80;99.90;;;;;;5048052;28;20040;-48
2022/10/28 04:17:01;;;;;;;25.05;14.25;;;12.80;99.90;;;;;;5047565;28;20129;-48
2022/10/28 04:19:26;;;;;;;20.08;12.85;;;12.70;99.90;;;;;;5047501;28;20045;-48
2022/10/28 04:21:52;;;;;;;22.90;13.90;;;12.80;99.90;;;;;;5047566;28;20048;-47
2022/10/28 04:24:17;;;;;;;19.23;12.25;;;12.80;99.90;;;;;;5047406;28;20144;-48
2022/10/28 04:26:43;;;;;;;26.33;12.98;;;12.80;99.90;;;;;;5047128;28;20041;-49
2022/10/28 04:29:09;;;;;;;19.00;13.23;;;12.80;99.90;;;;;;5050406;28;20571;-48
2022/10/28 04:31:34;;;;;;;22.60;12.90;;;13.30;99.90;;;;;;5050584;28;20151;-49
2022/10/28 04:34:00;;;;;;;22.45;13.38;;;13.10;99.90;;;;;;5050603;28;20037;-48
2022/10/28 04:36:26;;;;;;;22.27;13.32;;;12.80;99.90;;;;;;5050831;28;20079;-48
2022/10/28 04:38:51;;;;;;;27.70;13.30;;;12.80;99.90;;;;;;5050952;28;20045;-49
2022/10/28 04:41:17;;;;;;;22.35;13.13;;;12.70;99.90;;;;;;5050684;28;20037;-47
2022/10/28 04:43:43;;;;;;;22.70;13.40;;;12.70;99.90;;;;;;5050797;28;20076;-48
2022/10/28 04:46:09;;;;;;;24.90;13.18;;;12.70;99.90;;;;;;5050282;28;20056;-48
2022/10/28 04:48:35;;;;;;;18.92;12.45;;;12.70;99.90;;;;;;5051075;28;20079;-50
2022/10/28 04:51:00;;;;;;;18.88;12.95;;;13.00;99.90;;;;;;5049186;28;20466;-49
2022/10/28 04:53:26;;;;;;;22.00;13.48;;;12.70;99.90;;;;;;5050951;28;20051;-49
2022/10/28 04:55:58;;;;;;;19.85;12.68;;;12.70;99.90;;;;;;5050360;28;20041;-47
2022/10/28 04:58:25;;;;;;;19.48;12.68;;;12.70;99.90;;;;;;5050453;28;20099;-48
2022/10/28 05:00:51;;;;;;;19.50;12.70;;;12.60;99.90;;;;;;5050150;28;20061;-48
2022/10/28 05:03:16;;;;;;;24.90;14.20;;;12.60;99.90;;;;;;5050104;28;20401;-48
2022/10/28 05:05:42;;;;;;;22.20;13.27;;;12.70;99.90;;;;;;5050209;28;20086;-47
2022/10/28 05:08:08;;;;;;;27.05;14.15;;;12.70;99.90;;;;;;5050216;28;20079;-48
2022/10/28 05:10:33;;;;;;;24.60;13.27;;;12.60;99.90;;;;;;5050089;28;20633;-47
2022/10/28 05:12:59;;;;;;;20.83;13.77;;;12.60;99.90;;;;;;5050201;28;20103;-48
2022/10/28 05:15:25;;;;;;;24.58;12.15;;;12.90;99.90;;;;;;5049939;28;20048;-47
2022/10/28 05:17:51;;;;;;;24.13;13.05;;;12.60;99.90;;;;;;5049747;28;20048;-48
2022/10/28 05:20:18;;;;;;;23.60;13.48;;;12.60;99.90;;;;;;5049857;28;20045;-48
2022/10/28 05:22:46;;;;;;;24.00;14.15;;;12.60;99.90;;;;;;5050240;28;20545;-48
2022/10/28 05:25:12;;;;;;;18.48;12.57;;;12.60;99.90;;;;;;5049717;28;20056;-48
2022/10/28 05:27:37;;;;;;;22.30;14.02;;;12.60;99.90;;;;;;5050241;28;20037;-49
2022/10/28 05:30:03;;;;;;;21.80;13.05;;;12.60;99.90;;;;;;5049701;28;20067;-47
2022/10/28 05:32:29;;;;;;;22.13;13.48;;;12.50;99.90;;;;;;5050203;28;20052;-47
2022/10/28 05:34:55;;;;;;;26.13;13.10;;;12.70;99.90;;;;;;5049836;28;20041;-47
2022/10/28 05:37:20;;;;;;;23.55;13.93;;;12.50;99.90;;;;;;5049580;28;20487;-50
2022/10/28 05:39:46;;;;;;;21.88;12.77;;;12.50;99.90;;;;;;5049752;28;20482;-48
2022/10/28 05:42:12;;;;;;;27.77;13.90;;;12.50;99.90;;;;;;5049519;28;20041;-49
2022/10/28 05:44:37;;;;;;;22.40;13.27;;;12.50;99.90;;;;;;5048487;28;20087;-47
2022/10/28 05:47:03;;;;;;;27.02;14.88;;;12.40;99.90;;;;;;5049607;28;20053;-48
2022/10/28 05:49:29;;;;;;;23.63;14.45;;;12.50;99.90;;;;;;5050219;28;20053;-49
2022/10/28 05:51:54;;;;;;;24.95;13.40;;;12.40;99.90;;;;;;5050142;28;20033;-48
2022/10/28 05:54:20;;;;;;;28.17;15.45;;;12.30;99.90;;;;;;5049386;28;20098;-47
2022/10/28 05:56:46;;;;;;;25.90;13.25;;;12.40;99.90;;;;;;5049423;28;20044;-47
2022/10/28 05:59:11;;;;;;;23.55;14.23;;;12.60;99.90;;;;;;5049308;28;20120;-48
2022/10/28 06:01:38;;;;;;;26.52;14.30;;;12.60;99.90;;;;;;5049579;28;20052;-48
2022/10/28 06:04:04;;;;;;;22.63;13.98;;;12.40;99.90;;;;;;5049702;28;20060;-52
2022/10/28 06:06:29;;;;;;;25.23;13.50;;;12.70;99.90;;;;;;5049045;28;20376;-48
2022/10/28 06:08:55;;;;;;;19.05;13.45;;;12.80;99.90;;;;;;5049456;28;20037;-48
2022/10/28 06:11:21;;;;;;;25.08;14.20;;;12.30;99.90;;;;;;5049338;28;20052;-48
2022/10/28 06:13:46;;;;;;;23.48;13.77;;;12.20;99.90;;;;;;5049216;28;20040;-47
2022/10/28 06:16:12;;;;;;;26.98;13.30;;;12.40;99.90;;;;;;5048432;28;20040;-50
2022/10/28 06:18:38;;;;;;;22.00;12.95;;;12.20;99.90;;;;;;5049035;28;20143;-48
2022/10/28 06:21:04;;;;;;;25.13;14.02;;;12.30;99.90;;;;;;5048601;28;20156;-47
2022/10/28 06:23:29;;;;;;;20.52;12.52;;;12.20;99.90;;;;;;5048402;28;20049;-47
2022/10/28 06:26:00;;;;;;;22.27;13.35;;;12.60;99.90;;;;;;5048905;28;20052;-48
2022/10/28 06:28:26;;;;;;;25.52;13.55;;;12.20;99.90;;;;;;5049009;28;20083;-48
2022/10/28 06:30:52;;;;;;;23.13;13.10;;;12.60;99.90;;;;;;5048739;28;20043;-48
2022/10/28 06:33:18;;;;;;;23.08;13.30;;;12.50;99.90;;;;;;5047360;28;20244;-48
2022/10/28 06:35:44;;;;;;;22.17;13.35;;;12.70;99.90;;;;;;5048704;28;20129;-50
2022/10/28 06:38:09;;;;;;;24.10;13.82;;;12.30;99.90;;;;;;5049247;28;20056;-48
2022/10/28 06:40:35;;;;;;;25.17;12.18;;;12.60;99.90;;;;;;5048629;28;20044;-48
2022/10/28 06:43:05;;;;;;;25.08;14.60;;;12.60;99.90;;;;;;5048847;28;20033;-47
2022/10/28 06:45:33;;;;;;;22.90;13.13;;;12.20;99.90;;;;;;5048027;28;20057;-47
2022/10/28 06:48:01;;;;;;;24.48;12.75;;;12.60;99.90;;;;;;5048170;28;20080;-49
2022/10/28 06:50:28;;;;;;;26.45;13.07;;;12.70;99.90;;;;;;5047416;28;20039;-48
2022/10/28 06:52:57;;;;;;;24.77;12.18;;;13.10;99.90;;;;;;5048330;28;20140;-48
2022/10/28 06:55:24;;;;;;;26.58;13.70;;;12.50;99.90;;;;;;5048014;28;20043;-49
2022/10/28 06:57:50;;;;;;;21.02;13.43;;;12.80;99.90;;;;;;5047708;28;20048;-50
2022/10/28 07:00:16;;;;;;;24.52;13.07;;;12.30;99.90;;;;;;5047169;28;20037;-54
2022/10/28 07:02:42;;;;;;;21.67;11.93;;;12.30;99.90;;;;;;5047026;28;20029;-50
2022/10/28 07:05:08;;;;;;;20.52;12.68;;;12.40;99.90;;;;;;5047509;28;20037;-49
2022/10/28 07:07:38;;;;;;;20.27;12.20;;;12.40;99.90;;;;;;5044916;28;20047;-51
2022/10/28 07:10:07;;;;;;;22.65;11.98;;;12.50;99.90;;;;;;5047971;28;20047;-50
2022/10/28 07:12:32;;;;;;;22.15;11.65;;;12.60;99.90;;;;;;5047072;28;20032;-48
2022/10/28 07:14:58;;;;;;;24.60;11.38;;;13.00;99.90;;;;;;5047673;28;20482;-48
2022/10/28 07:17:23;;;;;;;22.02;12.13;;;13.20;99.90;;;;;;5046473;28;20119;-48
2022/10/28 07:19:49;;;;;;;21.77;12.40;;;13.20;99.90;;;;;;5047272;28;20029;-49
2022/10/28 07:22:15;;;;;;;21.90;11.43;;;12.90;99.90;;;;;;5047567;28;20103;-49
2022/10/28 07:24:41;;;;;;;19.50;10.88;;;13.30;99.90;;;;;;5047753;28;20567;-51
2022/10/28 07:27:08;;;;;;;19.02;11.18;;;13.30;99.90;;;;;;5047595;28;20040;-51
2022/10/28 07:29:33;;;;;;;21.73;10.90;;;13.10;99.90;;;;;;5046760;28;20041;-48
2022/10/28 07:31:59;;;;;;;19.33;10.90;;;13.10;99.90;;;;;;5047078;28;20029;-49
2022/10/28 07:34:25;;;;;;;23.17;11.13;;;13.40;99.90;;;;;;5046966;28;20607;-48
2022/10/28 07:36:52;;;;;;;26.02;11.02;;;13.40;99.90;;;;;;5047224;28;20087;-51
2022/10/28 07:39:18;;;;;;;20.05;10.95;;;14.00;99.90;;;;;;5047730;28;20052;-48
2022/10/28 07:41:44;;;;;;;22.02;10.93;;;13.60;99.90;;;;;;5047510;28;20041;-48
2022/10/28 07:44:10;;;;;;;16.40;9.95;;;13.70;99.90;;;;;;5046596;28;20895;-50
2022/10/28 07:46:36;;;;;;;17.90;9.65;;;13.40;99.90;;;;;;5047161;28;20384;-49
2022/10/28 07:49:02;;;;;;;17.80;9.57;;;13.50;99.90;;;;;;5048057;28;20052;-49
2022/10/28 07:51:28;;;;;;;21.05;9.68;;;14.00;99.90;;;;;;5046380;28;20059;-51
2022/10/28 07:53:55;;;;;;;16.17;9.45;;;13.60;99.90;;;;;;5047435;28;20223;-48
2022/10/28 07:56:21;;;;;;;20.92;9.80;;;13.70;99.90;;;;;;5048022;28;20037;-49
2022/10/28 07:58:47;;;;;;;16.95;9.70;;;13.90;99.90;;;;;;5047690;28;20529;-49
2022/10/28 08:01:16;;;;;;;21.95;9.60;;;14.10;99.90;;;;;;5047206;28;20045;-48
2022/10/28 08:03:41;;;;;;;19.98;9.48;;;14.10;99.90;;;;;;5050700;28;20051;-49
2022/10/28 08:06:10;;;;;;;16.08;9.05;;;14.20;99.90;;;;;;5051190;28;20045;-51
2022/10/28 08:08:37;;;;;;;18.02;9.32;;;14.30;99.90;;;;;;5051006;28;20190;-48
2022/10/28 08:11:11;;;;;;;14.98;8.50;;;14.50;99.90;;;;;;5049077;28;20048;-50
2022/10/28 08:13:37;;;;;;;21.70;9.20;;;14.60;99.90;;;;;;5050833;28;20045;-49
2022/10/28 08:16:03;;;;;;;15.32;8.13;;;14.80;99.90;;;;;;5051228;28;20113;-50
2022/10/28 08:18:28;;;;;;;18.85;8.80;;;14.90;99.90;;;;;;5050866;28;20057;-50
2022/10/28 08:20:57;;;;;;;15.48;7.85;;;15.00;99.90;;;;;;5035275;28;20037;-47
2022/10/28 08:23:22;;;;;;;16.02;7.40;;;15.00;99.90;;;;;;5020387;28;20198;-52
2022/10/28 08:25:49;;;;;;;20.02;7.60;;;15.30;99.90;;;;;;5039033;28;20045;-54
2022/10/28 08:28:15;;;;;;;18.25;7.10;;;15.30;99.90;;;;;;5044917;28;20041;-57
2022/10/28 08:30:41;;;;;;;14.60;7.10;;;15.50;99.90;;;;;;5025597;28;21483;-59
2022/10/28 08:33:06;;;;;;;19.67;7.65;;;15.60;99.90;;;;;;5034641;28;20033;-57
2022/10/28 08:35:34;;;;;;;17.95;6.05;;;15.90;99.90;;;;;;5037257;28;20039;-49
2022/10/28 08:38:00;;;;;;;17.25;7.07;;;15.90;99.90;;;;;;5031396;28;20122;-43
2022/10/28 08:40:42;;;;;;;13.73;7.68;;;16.00;99.90;;;;;;5036082;28;20049;-55
2022/10/28 08:43:20;;;;;;;13.50;5.80;;;16.10;99.90;;;;;;5034909;28;20491;-55
2022/10/28 08:46:33;;;;;;;15.80;6.13;;;16.10;99.90;;;;;;5036160;28;20945;-54
2022/10/28 08:49:02;;;;;;;11.70;6.28;;;16.90;99.90;;;;;;4996464;28;20049;-48
2022/10/28 08:51:47;;;;;;;15.00;5.60;;;16.40;99.90;;;;;;5014226;28;20049;-55
2022/10/28 08:54:23;;;;;;;13.57;5.65;;;16.50;99.90;;;;;;5040248;28;20061;-54
2022/10/28 08:56:50;;;;;;;14.45;5.88;;;16.60;99.90;;;;;;5035284;28;20045;-55
2022/10/28 08:59:31;;;;;;;13.85;5.45;;;16.70;99.90;;;;;;5037074;28;20041;-47
2022/10/28 09:02:00;;;;;;;13.43;5.95;;;16.80;99.90;;;;;;5034552;28;20040;-53
2022/10/28 09:04:40;;;;;;;24.55;7.22;;;16.90;99.90;;;;;;5034455;28;20052;-48
2022/10/28 09:07:21;;;;;;;12.75;5.57;;;17.10;99.90;;;;;;5036121;28;20847;-46
2022/10/28 09:09:49;;;;;;;15.07;5.15;;;17.20;99.90;;;;;;5033248;28;20083;-48
2022/10/28 09:12:25;;;;;;;13.73;5.05;;;17.30;99.90;;;;;;5035280;28;21200;-47
2022/10/28 09:14:56;;;;;;;13.38;5.70;;;17.40;99.90;;;;;;5034005;28;20104;-47
2022/10/28 09:17:55;;;;;;;14.80;4.95;;;17.50;99.90;;;;;;5037003;28;20552;-48
2022/10/28 09:20:45;;;;;;;17.63;6.65;;;17.60;99.90;;;;;;5031767;28;20112;-46
2022/10/28 09:23:22;;;;;;;16.08;5.57;;;17.70;99.90;;;;;;5037306;28;20127;-48
2022/10/28 09:25:47;;;;;;;12.57;5.15;;;17.80;99.90;;;;;;5033716;28;20056;-50
2022/10/28 09:28:50;;;;;;;11.82;5.45;;;17.90;99.90;;;;;;5036851;28;20037;-49
2022/10/28 09:31:31;;;;;;;14.02;5.15;;;18.00;99.90;;;;;;5020772;28;20051;-49
2022/10/28 09:34:13;;;;;;;9.13;4.15;;;18.00;99.90;;;;;;5028355;28;20041;-44
2022/10/28 09:36:49;;;;;;;14.85;5.72;;;18.00;99.90;;;;;;5015280;28;20033;-46
2022/10/28 09:39:20;;;;;;;18.02;5.05;;;18.10;99.90;;;;;;5034546;28;20032;-48
2022/10/28 09:41:48;;;;;;;18.15;5.90;;;18.10;99.90;;;;;;5035592;28;20041;-53
2022/10/28 09:44:16;;;;;;;11.98;5.07;;;18.10;99.90;;;;;;5029732;28;20041;-51
2022/10/28 09:46:50;;;;;;;13.80;5.18;;;18.20;99.90;;;;;;5034456;28;20071;-49
2022/10/28 09:49:22;;;;;;;10.80;5.07;;;18.20;99.90;;;;;;5034735;28;20482;-45
2022/10/28 09:52:09;;;;;;;14.55;4.63;;;18.20;99.90;;;;;;5028801;28;22838;-51
2022/10/28 09:54:40;;;;;;;11.55;4.93;;;18.20;99.90;;;;;;5013316;28;20198;-45
2022/10/28 09:57:06;;;;;;;15.55;4.80;;;18.30;99.90;;;;;;5031219;28;20645;-51
2022/10/28 09:59:33;;;;;;;11.88;4.32;;;18.30;99.90;;;;;;5017175;28;20383;-47
2022/10/28 10:01:59;;;;;;;13.70;5.03;;;18.40;99.90;;;;;;5034804;28;20048;-52
2022/10/28 10:04:27;;;;;;;9.50;4.53;;;18.50;99.90;;;;;;5013109;28;20044;-54
2022/10/28 10:06:58;;;;;;;10.70;4.25;;;18.50;99.90;;;;;;5012755;28;20068;-55
2022/10/28 10:09:30;;;;;;;12.80;4.10;;;18.50;99.90;;;;;;5013327;28;20098;-55
2022/10/28 10:12:04;;;;;;;11.88;4.72;;;18.60;99.90;;;;;;5015634;28;20276;-57
2022/10/28 10:14:39;;;;;;;12.50;4.28;;;18.60;99.90;;;;;;5014956;28;20041;-59
2022/10/28 10:17:14;;;;;;;16.15;4.75;;;18.60;99.90;;;;;;5008718;28;20520;-58
2022/10/28 10:20:08;;;;;;;15.07;4.57;;;18.60;99.90;;;;;;5015066;28;20489;-55
2022/10/28 10:22:39;;;;;;;16.33;4.72;;;18.60;99.90;;;;;;5012033;28;20067;-56
2022/10/28 10:25:18;;;;;;;13.77;5.28;;;18.60;99.90;;;;;;5014377;28;20071;-58
2022/10/28 10:28:13;;;;;;;15.65;4.72;;;18.60;99.90;;;;;;5021431;28;20254;-57
2022/10/28 10:30:50;;;;;;;12.65;4.70;;;18.60;99.90;;;;;;5018447;28;20883;-57
2022/10/28 10:33:32;;;;;;;14.55;5.35;;;18.60;99.90;;;;;;5023947;28;20041;-59
2022/10/28 10:36:09;;;;;;;18.45;4.55;;;18.70;99.90;;;;;;5039262;28;20489;-56
2022/10/28 10:38:36;;;;;;;13.20;4.68;;;18.70;99.90;;;;;;5037713;28;20574;-58
2022/10/28 10:41:03;;;;;;;11.30;4.35;;;18.70;99.90;;;;;;5005419;28;20099;-60
2022/10/28 10:43:30;;;;;;;10.88;4.32;;;18.70;99.90;;;;;;5022463;28;20041;-59
2022/10/28 10:46:15;;;;;;;15.02;4.90;;;18.70;99.90;;;;;;5020171;28;20067;-58
2022/10/28 10:48:42;;;;;;;12.95;5.20;;;18.70;99.90;;;;;;5021683;28;20128;-57
2022/10/28 10:51:22;;;;;;;14.93;5.63;;;18.80;99.90;;;;;;5005512;28;20029;-56
2022/10/28 10:53:51;;;;;;;15.23;4.15;;;18.90;99.90;;;;;;5036519;28;20041;-56
2022/10/28 10:56:31;;;;;;;10.25;4.57;;;19.00;99.90;;;;;;5038860;28;20381;-56
2022/10/28 10:59:04;;;;;;;18.48;4.82;;;19.10;99.90;;;;;;5037800;28;20047;-58
2022/10/28 11:01:37;;;;;;;12.18;4.43;;;19.10;99.90;;;;;;5038364;28;20045;-58
2022/10/28 11:04:14;;;;;;;19.67;4.95;;;19.10;99.90;;;;;;5018986;28;20040;-60
2022/10/28 11:06:55;;;;;;;12.70;4.93;;;19.10;99.90;;;;;;5038287;28;20052;-59
2022/10/28 11:09:41;;;;;;;11.10;4.95;;;19.20;99.90;;;;;;5019482;28;20033;-59
2022/10/28 11:12:39;;;;;;;12.77;4.15;;;19.30;99.90;;;;;;5019433;28;20405;-59
2022/10/28 11:15:14;;;;;;;14.45;4.55;;;19.30;99.90;;;;;;5020685;28;20669;-56
2022/10/28 11:17:52;;;;;;;14.27;5.18;;;19.30;99.90;;;;;;5021311;28;20071;-56
2022/10/28 11:20:24;;;;;;;13.32;4.47;;;19.30;99.90;;;;;;5022253;28;20040;-57
2022/10/28 11:23:14;;;;;;;12.57;5.05;;;19.30;99.90;;;;;;5037526;28;20041;-59
2022/10/28 11:25:44;;;;;;;15.20;4.75;;;19.30;99.90;;;;;;5036491;28;20125;-59
2022/10/28 11:28:34;;;;;;;12.60;4.70;;;19.30;99.90;;;;;;5021496;28;20033;-59
2022/10/28 11:31:19;;;;;;;12.48;4.63;;;19.30;99.90;;;;;;5037288;28;20052;-59
2022/10/28 11:34:12;;;;;;;12.93;4.75;;;19.50;99.90;;;;;;5038533;28;20033;-59
2022/10/28 11:36:38;;;;;;;11.88;4.00;;;19.50;99.90;;;;;;5021294;28;20065;-59
2022/10/28 11:39:20;;;;;;;17.63;4.53;;;19.60;99.90;;;;;;5036958;28;20072;-58
2022/10/28 11:42:20;;;;;;;16.50;5.00;;;19.60;99.90;;;;;;5027911;28;20045;-55
2022/10/28 11:44:46;;;;;;;13.45;4.20;;;19.60;99.90;;;;;;5037947;28;20048;-56
2022/10/28 11:47:49;;;;;;;13.77;4.85;;;19.60;99.90;;;;;;5041339;28;20103;-57
2022/10/28 11:50:47;;;;;;;13.47;4.53;;;19.60;99.90;;;;;;5056419;28;20034;-58
2022/10/28 11:53:21;;;;;;;19.58;5.50;;;19.60;99.90;;;;;;5028353;28;20292;-56
2022/10/28 11:55:47;;;;;;;9.90;4.03;;;19.60;99.90;;;;;;5055020;28;20045;-57
2022/10/28 11:58:39;;;;;;;13.68;4.55;;;19.50;99.90;;;;;;5040432;28;20738;-55
2022/10/28 12:01:42;;;;;;;14.40;3.95;;;19.50;99.90;;;;;;5039835;28;20039;-50
2022/10/28 12:04:32;;;;;;;13.90;3.70;;;19.50;99.90;;;;;;5039322;28;21053;-52
2022/10/28 12:07:17;;;;;;;8.43;3.40;;;19.60;99.90;;;;;;5041029;28;20041;-54
2022/10/28 12:10:10;;;;;;;15.52;4.70;;;19.60;99.90;;;;;;5041483;28;20083;-52
2022/10/28 12:12:36;;;;;;;16.85;4.50;;;19.70;99.90;;;;;;5040225;28;20141;-53
2022/10/28 12:15:25;;;;;;;8.93;4.28;;;19.70;99.90;;;;;;5040733;28;20152;-53
2022/10/28 12:18:09;;;;;;;14.20;3.85;;;19.80;99.90;;;;;;5041001;28;20033;-53
2022/10/28 12:20:48;;;;;;;14.55;4.20;;;19.90;99.90;;;;;;5039546;28;20098;-59
2022/10/28 12:23:17;;;;;;;11.93;3.78;;;19.90;99.90;;;;;;5039569;28;20053;-55
2022/10/28 12:25:47;;;;;;;13.88;3.72;;;20.10;99.90;;;;;;5041526;28;20055;-59
2022/10/28 12:28:39;;;;;;;12.73;4.40;;;20.00;99.90;;;;;;5041389;28;20041;-54
2022/10/28 12:31:16;;;;;;;9.88;4.70;;;20.00;99.90;;;;;;5040998;28;20912;-53
2022/10/28 12:33:46;;;;;;;9.95;4.72;;;20.00;99.90;;;;;;5041111;28;20883;-59
2022/10/28 12:36:27;;;;;;;15.68;4.00;;;19.90;99.90;;;;;;5057209;28;20048;-56
2022/10/28 12:39:01;;;;;;;15.93;4.25;;;20.00;99.90;;;;;;5041206;28;20063;-48
2022/10/28 12:41:41;;;;;;;16.35;4.43;;;20.00;99.90;;;;;;5039327;28;20037;-51
2022/10/28 12:44:20;;;;;;;10.20;3.88;;;20.00;99.90;;;;;;5036347;28;20048;-50
2022/10/28 12:47:01;;;;;;;15.85;4.00;;;20.00;99.90;;;;;;5039162;28;20057;-53
2022/10/28 12:49:45;;;;;;;12.25;3.50;;;20.40;99.90;;;;;;5041920;28;20045;-47
2022/10/28 12:52:29;;;;;;;17.95;4.68;;;20.00;99.90;;;;;;5043213;28;20037;-43
2022/10/28 12:55:20;;;;;;;17.50;4.28;;;20.00;99.90;;;;;;5044542;28;20044;-45
2022/10/28 12:57:52;;;;;;;11.87;3.83;;;20.00;99.90;;;;;;5044854;28;20041;-50